Amble, United Kingdom
Current Conditions -  °F | °C
As of 3:50 PM on Wednesday 28 Jan 2015 (Local Time) from EGQM Reporting Station
Few Clouds Few Clouds  
Wind Chill: 27°   Ceiling: Unl
Heat Index: 39°   Visibility: 6mi
Dew Point: 27°   Wind: 32mph
Humidity: 61%   Direction: 270°W
Pressure: 29.18"   Gusts: 45mph
Location:  55.33°N, 1.58°W
Report Text: EGQM 281550Z AUTO 27028G39KT 9999 FEW130/// 04/M03 Q0988
Loading
Personal Weather Stations






























Interactive Weather Map New forecast layout! Learn more

10-Day Weather Forecast

Advertisements
Track Severe Weather on mobile